Time,TemperatureF,DewpointF,PressureIn,WindDirection,WindDirectionDegrees,WindSpeedMPH,WindSpeedGustMPH,Humidity,HourlyPrecipIn,Conditions,Clouds,dailyrainin,SoftwareType,DateUTC
2013-06-29 00:01:00,59.0,58.0,-100.00,North,5,2.0,6.0,96,-99.99,,,-99.99,,2013-06-29 05:01:00,
2013-06-29 00:21:00,59.0,58.0,-100.00,NNE,20,3.0,5.0,98,-99.99,,,-99.99,,2013-06-29 05:21:00,
2013-06-29 00:31:00,59.0,58.0,-100.00,NNE,20,3.0,5.0,98,-99.99,,,-99.99,,2013-06-29 05:31:00,
2013-06-29 00:41:00,59.0,58.0,-100.00,NNE,20,3.0,5.0,98,-99.99,,,-99.99,,2013-06-29 05:41:00,
2013-06-29 00:52:00,59.0,58.0,-100.00,NNE,20,3.0,5.0,98,-99.99,,,-99.99,,2013-06-29 05:52:00,
2013-06-29 01:01:00,59.0,58.0,-100.00,NNE,20,3.0,5.0,98,-99.99,,,-99.99,,2013-06-29 06:01:00,
2013-06-29 01:02:00,59.0,59.0,-100.00,North,10,4.0,10.0,98,-99.99,,,-99.99,,2013-06-29 06:02:00,
2013-06-29 01:22:00,59.0,59.0,-100.00,North,10,4.0,10.0,98,-99.99,,,-99.99,,2013-06-29 06:22:00,
2013-06-29 01:34:00,59.0,59.0,-100.00,North,10,4.0,10.0,98,-99.99,,,-99.99,,2013-06-29 06:34:00,
2013-06-29 01:43:00,59.0,59.0,-100.00,North,10,4.0,10.0,98,-99.99,,,-99.99,,2013-06-29 06:43:00,
2013-06-29 01:53:00,59.0,59.0,-100.00,North,10,4.0,10.0,98,-99.99,,,-99.99,,2013-06-29 06:53:00,
2013-06-29 02:22:00,60.0,59.0,-100.00,NE,40,6.0,10.0,98,-99.99,,,-99.99,,2013-06-29 07:22:00,
2013-06-29 02:33:00,60.0,59.0,-100.00,NE,40,6.0,10.0,98,-99.99,,,-99.99,,2013-06-29 07:33:00,
2013-06-29 02:43:00,60.0,59.0,-100.00,NE,40,6.0,10.0,98,-99.99,,,-99.99,,2013-06-29 07:43:00,
2013-06-29 02:53:00,60.0,59.0,-100.00,NE,40,6.0,10.0,98,-99.99,,,-99.99,,2013-06-29 07:53:00,
2013-06-29 03:01:00,60.0,59.0,-100.00,NE,40,6.0,10.0,98,-99.99,,,-99.99,,2013-06-29 08:01:00,
2013-06-29 03:02:00,59.0,58.0,-100.00,NE,40,7.0,13.0,98,-99.99,,,-99.99,,2013-06-29 08:02:00,
2013-06-29 03:22:00,59.0,58.0,-100.00,NE,40,7.0,13.0,98,-99.99,,,-99.99,,2013-06-29 08:22:00,
2013-06-29 03:33:00,59.0,58.0,-100.00,NE,40,7.0,13.0,98,-99.99,,,-99.99,,2013-06-29 08:33:00,
2013-06-29 03:43:00,59.0,58.0,-100.00,NE,40,7.0,13.0,98,-99.99,,,-99.99,,2013-06-29 08:43:00,
2013-06-29 03:52:00,59.0,58.0,-100.00,NE,40,7.0,13.0,98,-99.99,,,-99.99,,2013-06-29 08:52:00,
2013-06-29 04:22:00,58.0,58.0,-100.00,NNE,20,4.0,10.0,98,-99.99,,,-99.99,,2013-06-29 09:22:00,
2013-06-29 04:33:00,58.0,58.0,-100.00,NNE,20,4.0,10.0,98,-99.99,,,-99.99,,2013-06-29 09:33:00,
2013-06-29 04:42:00,58.0,58.0,-100.00,NNE,20,4.0,10.0,98,-99.99,,,-99.99,,2013-06-29 09:42:00,
2013-06-29 04:53:00,58.0,58.0,-100.00,NNE,20,4.0,10.0,98,-99.99,,,-99.99,,2013-06-29 09:53:00,
2013-06-29 05:01:00,58.0,58.0,-100.00,NNE,20,4.0,10.0,98,-99.99,,,-99.99,,2013-06-29 10:01:00,
2013-06-29 05:22:00,58.0,58.0,-100.00,North,0,6.0,15.0,98,-99.99,,,-99.99,,2013-06-29 10:22:00,
2013-06-29 05:33:00,58.0,58.0,-100.00,North,0,6.0,15.0,98,-99.99,,,-99.99,,2013-06-29 10:33:00,
2013-06-29 05:43:00,58.0,58.0,-100.00,North,0,6.0,15.0,98,-99.99,,,-99.99,,2013-06-29 10:43:00,
2013-06-29 05:53:00,58.0,58.0,-100.00,North,0,6.0,15.0,98,-99.99,,,-99.99,,2013-06-29 10:53:00,
2013-06-29 06:02:00,58.0,57.0,-100.00,NNE,30,4.0,12.0,98,-99.99,,,-99.99,,2013-06-29 11:02:00,
2013-06-29 06:23:00,58.0,57.0,-100.00,NNE,30,4.0,12.0,98,-99.99,,,-99.99,,2013-06-29 11:23:00,
2013-06-29 06:33:00,58.0,57.0,-100.00,NNE,30,4.0,12.0,98,-99.99,,,-99.99,,2013-06-29 11:33:00,
2013-06-29 06:43:00,58.0,57.0,-100.00,NNE,30,4.0,12.0,98,-99.99,,,-99.99,,2013-06-29 11:43:00,
2013-06-29 06:53:00,58.0,57.0,-100.00,NNE,30,4.0,12.0,98,-99.99,,,-99.99,,2013-06-29 11:53:00,
2013-06-29 07:02:00,57.0,57.0,-100.00,North,0,4.0,12.0,98,-99.99,,,-99.99,,2013-06-29 12:02:00,
2013-06-29 07:22:00,57.0,57.0,-100.00,North,0,4.0,12.0,98,-99.99,,,-99.99,,2013-06-29 12:22:00,
2013-06-29 07:34:00,57.0,57.0,-100.00,North,0,4.0,12.0,98,-99.99,,,-99.99,,2013-06-29 12:34:00,
2013-06-29 07:43:00,57.0,57.0,-100.00,North,0,4.0,12.0,98,-99.99,,,-99.99,,2013-06-29 12:43:00,
2013-06-29 07:53:00,57.0,57.0,-100.00,North,0,4.0,12.0,98,-99.99,,,-99.99,,2013-06-29 12:53:00,
2013-06-29 08:02:00,57.0,57.0,-100.00,North,10,5.0,10.0,98,-99.99,,,-99.99,,2013-06-29 13:02:00,
2013-06-29 08:23:00,57.0,57.0,-100.00,North,10,5.0,10.0,98,-99.99,,,-99.99,,2013-06-29 13:23:00,
2013-06-29 08:34:00,57.0,57.0,-100.00,North,10,5.0,10.0,98,-99.99,,,-99.99,,2013-06-29 13:34:00,
2013-06-29 08:43:00,57.0,57.0,-100.00,North,10,5.0,10.0,98,-99.99,,,-99.99,,2013-06-29 13:43:00,
2013-06-29 08:53:00,57.0,57.0,-100.00,North,10,5.0,10.0,98,-99.99,,,-99.99,,2013-06-29 13:53:00,
2013-06-29 09:23:00,59.0,58.0,-100.00,NE,35,3.0,10.0,98,-99.99,,,-99.99,,2013-06-29 14:23:00,
2013-06-29 09:34:00,59.0,58.0,-100.00,NE,35,3.0,10.0,98,-99.99,,,-99.99,,2013-06-29 14:34:00,
2013-06-29 09:45:00,59.0,58.0,-100.00,NE,35,3.0,10.0,98,-99.99,,,-99.99,,2013-06-29 14:45:00,
2013-06-29 09:53:00,59.0,58.0,-100.00,NE,35,3.0,10.0,98,-99.99,,,-99.99,,2013-06-29 14:53:00,
2013-06-29 10:01:00,59.0,58.0,-100.00,NE,35,3.0,10.0,98,-99.99,,,-99.99,,2013-06-29 15:01:00,
2013-06-29 10:22:00,60.0,58.0,-100.00,NNE,25,6.0,14.0,93,-99.99,,,-99.99,,2013-06-29 15:22:00,
2013-06-29 10:33:00,60.0,58.0,-100.00,NNE,25,6.0,14.0,93,-99.99,,,-99.99,,2013-06-29 15:33:00,
2013-06-29 10:42:00,60.0,58.0,-100.00,NNE,25,6.0,14.0,93,-99.99,,,-99.99,,2013-06-29 15:42:00,
2013-06-29 10:53:00,60.0,58.0,-100.00,NNE,25,6.0,14.0,93,-99.99,,,-99.99,,2013-06-29 15:53:00,
2013-06-29 11:02:00,60.0,58.0,-100.00,NNE,25,6.0,14.0,93,-99.99,,,-99.99,,2013-06-29 16:02:00,
2013-06-29 11:23:00,62.0,59.0,-100.00,North,0,7.0,14.0,89,-99.99,,,-99.99,,2013-06-29 16:23:00,
2013-06-29 11:34:00,62.0,59.0,-100.00,North,0,7.0,14.0,89,-99.99,,,-99.99,,2013-06-29 16:34:00,
2013-06-29 11:43:00,62.0,59.0,-100.00,North,0,7.0,14.0,89,-99.99,,,-99.99,,2013-06-29 16:43:00,
2013-06-29 11:53:00,62.0,59.0,-100.00,North,0,7.0,14.0,89,-99.99,,,-99.99,,2013-06-29 16:53:00,
2013-06-29 12:01:00,62.0,59.0,-100.00,North,0,7.0,14.0,89,-99.99,,,-99.99,,2013-06-29 17:01:00,
2013-06-29 12:23:00,64.0,57.0,-100.00,NNE,20,6.0,12.0,77,-99.99,,,-99.99,,2013-06-29 17:23:00,
2013-06-29 12:34:00,64.0,57.0,-100.00,NNE,20,6.0,12.0,77,-99.99,,,-99.99,,2013-06-29 17:34:00,
2013-06-29 12:42:00,64.0,57.0,-100.00,NNE,20,6.0,12.0,77,-99.99,,,-99.99,,2013-06-29 17:42:00,
2013-06-29 12:53:00,64.0,57.0,-100.00,NNE,20,6.0,12.0,77,-99.99,,,-99.99,,2013-06-29 17:53:00,
2013-06-29 13:01:00,64.0,57.0,-100.00,NNE,20,6.0,12.0,77,-99.99,,,-99.99,,2013-06-29 18:01:00,
2013-06-29 13:22:00,66.0,51.0,-100.00,NNE,30,8.0,19.0,58,-99.99,,,-99.99,,2013-06-29 18:22:00,
2013-06-29 13:34:00,66.0,51.0,-100.00,NNE,30,8.0,19.0,58,-99.99,,,-99.99,,2013-06-29 18:34:00,
2013-06-29 13:43:00,66.0,51.0,-100.00,NNE,30,8.0,19.0,58,-99.99,,,-99.99,,2013-06-29 18:43:00,
2013-06-29 13:53:00,66.0,51.0,-100.00,NNE,30,8.0,19.0,58,-99.99,,,-99.99,,2013-06-29 18:53:00,
2013-06-29 14:01:00,66.0,51.0,-100.00,NNE,30,8.0,19.0,58,-99.99,,,-99.99,,2013-06-29 19:01:00,
2013-06-29 14:22:00,68.0,51.0,-100.00,North,10,8.0,15.0,56,-99.99,,,-99.99,,2013-06-29 19:22:00,
2013-06-29 14:34:00,68.0,51.0,-100.00,North,10,8.0,15.0,56,-99.99,,,-99.99,,2013-06-29 19:34:00,
2013-06-29 14:43:00,68.0,51.0,-100.00,North,10,8.0,15.0,56,-99.99,,,-99.99,,2013-06-29 19:43:00,
2013-06-29 14:54:00,68.0,51.0,-100.00,North,10,8.0,15.0,56,-99.99,,,-99.99,,2013-06-29 19:54:00,
2013-06-29 15:02:00,68.0,51.0,-100.00,North,10,8.0,15.0,56,-99.99,,,-99.99,,2013-06-29 20:02:00,
2013-06-29 15:23:00,68.0,48.0,-100.00,NNE,15,12.0,20.0,49,-99.99,,,-99.99,,2013-06-29 20:23:00,
2013-06-29 15:33:00,68.0,48.0,-100.00,NNE,15,12.0,20.0,49,-99.99,,,-99.99,,2013-06-29 20:33:00,
2013-06-29 15:43:00,68.0,48.0,-100.00,NNE,15,12.0,20.0,49,-99.99,,,-99.99,,2013-06-29 20:43:00,
2013-06-29 15:52:00,68.0,48.0,-100.00,NNE,15,12.0,20.0,49,-99.99,,,-99.99,,2013-06-29 20:52:00,
2013-06-29 16:22:00,69.0,45.0,-100.00,North,10,11.0,17.0,43,-99.99,,,-99.99,,2013-06-29 21:22:00,
2013-06-29 16:32:00,69.0,45.0,-100.00,North,10,11.0,17.0,43,-99.99,,,-99.99,,2013-06-29 21:32:00,
2013-06-29 16:42:00,69.0,45.0,-100.00,North,10,11.0,17.0,43,-99.99,,,-99.99,,2013-06-29 21:42:00,
2013-06-29 16:52:00,69.0,45.0,-100.00,North,10,11.0,17.0,43,-99.99,,,-99.99,,2013-06-29 21:52:00,
2013-06-29 17:01:00,69.0,45.0,-100.00,North,10,11.0,17.0,43,-99.99,,,-99.99,,2013-06-29 22:01:00,
2013-06-29 17:22:00,69.0,45.0,-100.00,North,10,9.0,17.0,44,-99.99,,,-99.99,,2013-06-29 22:22:00,
2013-06-29 17:33:00,69.0,45.0,-100.00,North,10,9.0,17.0,44,-99.99,,,-99.99,,2013-06-29 22:33:00,
2013-06-29 17:43:00,69.0,45.0,-100.00,North,10,9.0,17.0,44,-99.99,,,-99.99,,2013-06-29 22:43:00,
2013-06-29 17:53:00,69.0,45.0,-100.00,North,10,9.0,17.0,44,-99.99,,,-99.99,,2013-06-29 22:53:00,
2013-06-29 18:01:00,66.0,44.0,-100.00,North,5,8.0,14.0,45,-99.99,,,-99.99,,2013-06-29 23:01:00,
2013-06-29 18:23:00,66.0,44.0,-100.00,North,5,8.0,14.0,45,-99.99,,,-99.99,,2013-06-29 23:23:00,
2013-06-29 18:34:00,66.0,44.0,-100.00,North,5,8.0,14.0,45,-99.99,,,-99.99,,2013-06-29 23:34:00,
2013-06-29 18:43:00,66.0,44.0,-100.00,North,5,8.0,14.0,45,-99.99,,,-99.99,,2013-06-29 23:43:00,
2013-06-29 18:53:00,66.0,44.0,-100.00,North,5,8.0,14.0,45,-99.99,,,-99.99,,2013-06-29 23:53:00,
2013-06-29 19:22:00,64.0,44.0,-100.00,NNE,20,6.0,15.0,48,-99.99,,,-99.99,,2013-06-30 00:22:00,
2013-06-29 19:34:00,64.0,44.0,-100.00,NNE,20,6.0,15.0,48,-99.99,,,-99.99,,2013-06-30 00:34:00,
2013-06-29 19:43:00,64.0,44.0,-100.00,NNE,20,6.0,15.0,48,-99.99,,,-99.99,,2013-06-30 00:43:00,
2013-06-29 19:52:00,64.0,44.0,-100.00,NNE,20,6.0,15.0,48,-99.99,,,-99.99,,2013-06-30 00:52:00,
2013-06-29 20:01:00,64.0,44.0,-100.00,NNE,20,6.0,15.0,48,-99.99,,,-99.99,,2013-06-30 01:01:00,
2013-06-29 20:22:00,60.0,44.0,-100.00,North,0,4.0,7.0,55,-99.99,,,-99.99,,2013-06-30 01:22:00,
2013-06-29 20:33:00,60.0,44.0,-100.00,North,0,4.0,7.0,55,-99.99,,,-99.99,,2013-06-30 01:33:00,
2013-06-29 20:44:00,60.0,44.0,-100.00,North,0,4.0,7.0,55,-99.99,,,-99.99,,2013-06-30 01:44:00,
2013-06-29 20:53:00,60.0,44.0,-100.00,North,0,4.0,7.0,55,-99.99,,,-99.99,,2013-06-30 01:53:00,
2013-06-29 21:24:00,57.0,44.0,-100.00,North,0,4.0,7.0,62,-99.99,,,-99.99,,2013-06-30 02:24:00,
2013-06-29 21:34:00,57.0,44.0,-100.00,North,0,4.0,7.0,62,-99.99,,,-99.99,,2013-06-30 02:34:00,
2013-06-29 21:43:00,57.0,44.0,-100.00,North,0,4.0,7.0,62,-99.99,,,-99.99,,2013-06-30 02:43:00,
2013-06-29 21:53:00,57.0,44.0,-100.00,North,0,4.0,7.0,62,-99.99,,,-99.99,,2013-06-30 02:53:00,
2013-06-29 22:01:00,57.0,44.0,-100.00,North,0,4.0,7.0,62,-99.99,,,-99.99,,2013-06-30 03:01:00,
2013-06-29 22:23:00,55.0,45.0,-100.00,North,0,4.0,6.0,68,-99.99,,,-99.99,,2013-06-30 03:23:00,
2013-06-29 22:34:00,55.0,45.0,-100.00,North,0,4.0,6.0,68,-99.99,,,-99.99,,2013-06-30 03:34:00,
2013-06-29 22:43:00,55.0,45.0,-100.00,North,0,4.0,6.0,68,-99.99,,,-99.99,,2013-06-30 03:43:00,
2013-06-29 22:53:00,55.0,45.0,-100.00,North,0,4.0,6.0,68,-99.99,,,-99.99,,2013-06-30 03:53:00,
2013-06-29 23:01:00,55.0,45.0,-100.00,North,0,4.0,6.0,68,-99.99,,,-99.99,,2013-06-30 04:01:00,
2013-06-29 23:22:00,54.0,45.0,-100.00,North,0,4.0,6.0,71,-99.99,,,-99.99,,2013-06-30 04:22:00,
2013-06-29 23:33:00,54.0,45.0,-100.00,North,0,4.0,6.0,71,-99.99,,,-99.99,,2013-06-30 04:33:00,
2013-06-29 23:43:00,54.0,45.0,-100.00,North,0,4.0,6.0,71,-99.99,,,-99.99,,2013-06-30 04:43:00,
2013-06-29 23:53:00,54.0,45.0,-100.00,North,0,4.0,6.0,71,-99.99,,,-99.99,,2013-06-30 04:53:00,